Time;durP1;ratioP1;P1;durP2;ratioP2;P2;SDS_P1;SDS_P2;PMS_P1;PMS_P2;Temp;Humidity;BMP_temperature;BMP_pressure;BME280_temperature;BME280_humidity;BME280_pressure;Samples;Min_cycle;Max_cycle;Signal;HPM_P1;HPM_P2
2022/08/23 00:03:04;;;;;;;7.70;4.05;;;20.60;62.40;;;;;;9186205;19;20479;-70
2022/08/23 00:06:11;;;;;;;15.25;4.78;;;20.50;62.50;;;;;;9183256;19;20015;-72
2022/08/23 00:09:17;;;;;;;13.95;5.15;;;20.50;62.50;;;;;;9185768;19;20015;-70
2022/08/23 00:12:23;;;;;;;7.75;4.88;;;20.40;62.60;;;;;;9186260;19;20349;-70
2022/08/23 00:15:28;;;;;;;8.27;4.55;;;20.40;62.70;;;;;;9185272;19;20018;-71
2022/08/23 00:18:36;;;;;;;11.70;5.32;;;20.30;62.80;;;;;;9185092;19;20015;-70
2022/08/23 00:21:42;;;;;;;9.65;5.80;;;20.30;63.00;;;;;;9185218;19;20011;-71
2022/08/23 00:24:48;;;;;;;8.88;5.82;;;20.30;63.00;;;;;;9180008;19;20603;-69
2022/08/23 00:27:53;;;;;;;13.50;5.40;;;20.20;63.00;;;;;;9184276;19;20015;-71
2022/08/23 00:30:58;;;;;;;11.30;6.38;;;20.20;63.10;;;;;;9184180;19;20018;-71
2022/08/23 00:34:06;;;;;;;8.82;5.80;;;20.20;63.20;;;;;;9183305;19;20025;-70
2022/08/23 00:37:12;;;;;;;10.80;6.28;;;20.10;63.40;;;;;;9184761;19;20021;-71
2022/08/23 00:40:19;;;;;;;10.95;5.60;;;20.10;63.40;;;;;;9182959;19;20035;-70
2022/08/23 00:50:23;;;;;;;10.63;5.95;;;20.00;63.70;;;;;;9183340;19;20014;-71
2022/08/23 00:53:32;;;;;;;9.63;5.22;;;20.00;63.90;;;;;;9183543;19;20023;-70
2022/08/23 00:56:38;;;;;;;13.43;5.88;;;19.90;63.80;;;;;;9182158;19;20368;-71
2022/08/23 00:59:43;;;;;;;10.73;5.80;;;19.90;63.80;;;;;;9183702;19;20022;-71
2022/08/23 01:02:51;;;;;;;9.70;5.40;;;19.90;63.90;;;;;;9180661;19;20360;-71
2022/08/23 01:06:06;;;;;;;15.85;6.22;;;19.90;64.10;;;;;;9181252;19;20025;-70
2022/08/23 01:09:15;;;;;;;12.63;5.90;;;19.80;64.30;;;;;;9183208;19;20022;-70
2022/08/23 01:12:24;;;;;;;14.45;6.47;;;19.80;64.20;;;;;;9182461;19;20029;-71
2022/08/23 01:15:41;;;;;;;10.60;6.03;;;19.80;64.30;;;;;;9182518;19;20078;-70
2022/08/23 01:18:47;;;;;;;10.10;6.30;;;19.70;64.40;;;;;;9182196;19;20010;-71
2022/08/23 01:22:01;;;;;;;16.60;6.65;;;19.70;64.40;;;;;;9182517;19;20025;-69
2022/08/23 01:25:12;;;;;;;14.50;5.90;;;19.70;65.30;;;;;;9176953;19;20014;-71
2022/08/23 01:28:19;;;;;;;10.23;5.57;;;19.60;64.60;;;;;;9182292;19;20086;-70
2022/08/23 01:31:26;;;;;;;10.20;5.68;;;19.60;64.60;;;;;;9181826;19;20011;-71
2022/08/23 01:34:31;;;;;;;10.75;6.22;;;19.60;64.70;;;;;;9180931;19;20033;-69
2022/08/23 01:37:41;;;;;;;13.73;6.50;;;19.50;64.70;;;;;;9182416;19;20325;-70
2022/08/23 01:40:49;;;;;;;11.68;6.68;;;19.50;64.80;;;;;;9176789;19;20074;-69
2022/08/23 01:43:54;;;;;;;11.27;6.50;;;19.40;64.90;;;;;;9180390;19;20013;-70
2022/08/23 01:47:02;;;;;;;20.00;6.80;;;19.40;64.90;;;;;;9177517;19;20018;-71
2022/08/23 01:50:08;;;;;;;11.60;7.38;;;19.40;65.00;;;;;;9181380;19;20014;-69
2022/08/23 01:53:14;;;;;;;9.27;6.70;;;19.40;65.10;;;;;;9179550;19;20025;-69
2022/08/23 01:56:27;;;;;;;11.48;6.63;;;19.30;65.10;;;;;;9178193;19;20019;-69
2022/08/23 01:59:45;;;;;;;14.15;6.95;;;19.30;65.20;;;;;;9179218;19;20539;-71
2022/08/23 02:02:51;;;;;;;15.30;6.88;;;19.30;65.20;;;;;;9180010;19;20098;-69
2022/08/23 02:05:56;;;;;;;14.45;6.97;;;19.20;65.30;;;;;;9177668;19;20027;-69
2022/08/23 02:09:04;;;;;;;15.63;6.93;;;19.20;65.30;;;;;;9180341;19;20010;-71
2022/08/23 02:12:24;;;;;;;12.50;7.20;;;19.20;65.40;;;;;;9179165;19;20014;-69
2022/08/23 02:15:35;;;;;;;;;;;19.20;65.50;;;;;;9179876;19;20010;-69
2022/08/23 02:18:40;;;;;;;15.80;6.82;;;19.10;65.30;;;;;;9181378;19;19911;-69
2022/08/23 02:21:47;;;;;;;12.65;6.60;;;19.10;65.20;;;;;;9180335;19;20015;-71
2022/08/23 02:24:53;;;;;;;15.30;7.63;;;19.10;65.50;;;;;;9173750;19;20021;-69
2022/08/23 02:28:03;;;;;;;15.18;7.47;;;19.00;65.50;;;;;;9178370;19;20822;-69
2022/08/23 02:31:08;;;;;;;16.35;8.65;;;19.00;65.70;;;;;;9178238;19;20551;-71
2022/08/23 02:34:17;;;;;;;12.63;8.13;;;19.00;65.70;;;;;;9178669;19;20021;-70
2022/08/23 02:37:22;;;;;;;11.93;7.40;;;18.90;65.80;;;;;;9175279;19;20028;-71
2022/08/23 02:40:27;;;;;;;16.48;7.38;;;18.90;65.90;;;;;;9177508;19;20488;-71
2022/08/23 02:43:36;;;;;;;14.70;8.18;;;18.90;66.00;;;;;;9177510;19;20010;-71
2022/08/23 02:46:45;;;;;;;12.80;7.75;;;18.90;66.10;;;;;;9175712;19;20015;-69
2022/08/23 02:49:52;;;;;;;15.25;7.82;;;18.90;66.10;;;;;;9177777;19;20018;-70
2022/08/23 02:52:59;;;;;;;17.85;8.38;;;18.80;66.10;;;;;;9179551;19;20451;-71
2022/08/23 02:56:05;;;;;;;13.57;7.20;;;18.80;66.30;;;;;;9177452;19;20044;-71
2022/08/23 02:59:27;;;;;;;11.40;7.55;;;18.80;66.30;;;;;;9177406;19;20017;-70
2022/08/23 03:02:32;;;;;;;13.93;7.70;;;18.80;66.40;;;;;;9179790;19;20018;-70
2022/08/23 03:05:37;;;;;;;12.95;7.97;;;18.80;66.50;;;;;;9178395;19;20028;-72
2022/08/23 03:08:44;;;;;;;14.18;8.13;;;18.80;66.40;;;;;;9184447;19;20022;-70
2022/08/23 03:11:50;;;;;;;14.00;8.48;;;18.70;66.50;;;;;;9186513;19;20010;-70
2022/08/23 03:15:00;;;;;;;15.80;8.77;;;18.70;67.10;;;;;;9186545;19;20015;-70
2022/08/23 03:18:05;;;;;;;11.43;7.70;;;18.70;66.60;;;;;;9186882;19;20104;-70
2022/08/23 03:21:11;;;;;;;13.27;8.45;;;18.70;66.60;;;;;;9187068;19;20021;-70
2022/08/23 03:24:16;;;;;;;11.95;8.15;;;18.70;66.70;;;;;;9182370;19;20022;-71
2022/08/23 03:27:22;;;;;;;13.43;8.52;;;18.60;66.60;;;;;;9182776;19;20022;-69
2022/08/23 03:30:31;;;;;;;14.38;8.85;;;18.60;66.70;;;;;;9185581;19;20014;-70
2022/08/23 03:33:37;;;;;;;14.75;8.40;;;18.60;66.80;;;;;;9182623;19;20015;-70
2022/08/23 03:36:42;;;;;;;11.63;7.72;;;18.60;66.90;;;;;;9186099;19;20018;-70
2022/08/23 03:39:47;;;;;;;9.77;7.63;;;18.60;66.90;;;;;;9183095;19;20490;-70
2022/08/23 03:42:53;;;;;;;14.50;8.50;;;18.50;66.90;;;;;;9185459;19;20018;-69
2022/08/23 03:46:03;;;;;;;12.75;8.00;;;18.50;66.90;;;;;;9184353;19;20556;-70
2022/08/23 03:49:09;;;;;;;15.48;8.48;;;18.50;67.00;;;;;;9184473;19;20011;-70
2022/08/23 03:52:24;;;;;;;12.65;8.15;;;18.50;67.10;;;;;;9185002;19;20019;-70
2022/08/23 03:55:29;;;;;;;14.13;8.48;;;18.40;67.00;;;;;;9185095;19;20053;-70
2022/08/23 03:58:36;;;;;;;16.48;8.02;;;18.40;67.10;;;;;;9184558;19;20011;-70
2022/08/23 04:01:44;;;;;;;16.85;7.95;;;18.40;67.10;;;;;;9183885;19;20014;-70
2022/08/23 04:04:49;;;;;;;14.07;8.30;;;18.40;67.30;;;;;;9184882;19;20711;-69
2022/08/23 04:08:19;;;;;;;12.13;9.20;;;18.40;67.30;;;;;;9184383;19;20061;-71
2022/08/23 04:11:37;;;;;;;11.68;8.38;;;18.30;67.20;;;;;;9183885;19;20594;-71
2022/08/23 04:14:44;;;;;;;17.30;8.82;;;18.30;67.30;;;;;;9183681;19;20014;-72
2022/08/23 04:17:53;;;;;;;19.35;8.63;;;18.30;67.40;;;;;;9182856;19;20018;-70
2022/08/23 04:21:02;;;;;;;17.85;8.88;;;18.30;67.50;;;;;;9183305;19;20015;-69
2022/08/23 04:24:08;;;;;;;12.02;8.13;;;18.20;67.40;;;;;;9182673;19;20014;-69
2022/08/23 04:27:13;;;;;;;11.40;8.23;;;18.20;67.60;;;;;;9180475;19;20029;-70
2022/08/23 04:30:20;;;;;;;13.55;9.18;;;18.20;67.60;;;;;;9182945;19;20499;-70
2022/08/23 04:33:30;;;;;;;11.45;8.55;;;18.20;67.70;;;;;;9182845;19;20014;-71
2022/08/23 04:36:39;;;;;;;10.68;8.55;;;18.10;67.70;;;;;;9182415;19;20025;-69
2022/08/23 04:43:14;;;;;;;14.68;9.40;;;18.10;67.70;;;;;;9181971;19;20345;-70
2022/08/23 04:46:19;;;;;;;18.58;8.95;;;18.10;67.80;;;;;;9181608;19;20018;-69
2022/08/23 04:49:28;;;;;;;14.45;8.77;;;18.10;67.90;;;;;;9182167;19;20015;-71
2022/08/23 04:52:34;;;;;;;15.80;8.93;;;18.10;67.90;;;;;;9182209;19;20038;-71
2022/08/23 04:55:40;;;;;;;13.13;8.82;;;18.10;67.90;;;;;;9181968;19;20021;-70
2022/08/23 04:58:46;;;;;;;12.15;8.00;;;18.10;68.00;;;;;;9181778;19;20483;-71
2022/08/23 05:01:52;;;;;;;11.90;8.13;;;18.10;68.00;;;;;;9181775;19;20033;-72
2022/08/23 05:04:59;;;;;;;12.90;7.88;;;18.10;68.10;;;;;;9181557;19;20010;-70
2022/08/23 05:08:05;;;;;;;15.45;8.90;;;18.10;68.10;;;;;;9179277;19;20111;-71
2022/08/23 05:11:12;;;;;;;11.95;8.55;;;18.10;68.10;;;;;;9183142;19;20019;-70
2022/08/23 05:14:18;;;;;;;12.77;8.43;;;18.10;68.20;;;;;;9182908;19;20010;-70
2022/08/23 05:17:23;;;;;;;12.63;8.02;;;18.10;68.20;;;;;;9180616;19;20022;-70
2022/08/23 05:20:31;;;;;;;16.33;8.40;;;18.10;68.30;;;;;;9181048;19;20491;-70
2022/08/23 05:23:36;;;;;;;14.32;8.32;;;18.10;68.40;;;;;;9180114;19;20017;-71
2022/08/23 05:26:49;;;;;;;16.73;8.83;;;18.10;68.40;;;;;;9175437;19;20017;-72
2022/08/23 05:29:54;;;;;;;15.93;7.93;;;18.10;68.40;;;;;;9178722;19;20022;-72
2022/08/23 05:33:00;;;;;;;14.73;8.30;;;18.10;69.10;;;;;;9179612;19;20097;-71
2022/08/23 05:36:10;;;;;;;13.45;8.55;;;18.10;68.50;;;;;;9180746;19;20010;-72
2022/08/23 05:39:15;;;;;;;14.57;8.68;;;18.10;68.60;;;;;;9181440;19;20014;-69
2022/08/23 05:42:37;;;;;;;15.57;8.35;;;18.10;68.60;;;;;;9182462;19;20014;-69
2022/08/23 05:45:42;;;;;;;11.15;8.50;;;18.10;68.70;;;;;;9181680;19;20018;-70
2022/08/23 05:48:49;;;;;;;11.82;8.25;;;18.10;68.70;;;;;;9176307;19;20018;-70
2022/08/23 05:51:59;;;;;;;14.35;8.38;;;18.20;68.80;;;;;;9181327;19;20014;-70
2022/08/23 05:55:09;;;;;;;14.15;8.07;;;18.20;68.80;;;;;;9181260;19;20013;-71
2022/08/23 05:58:17;;;;;;;12.65;9.18;;;18.20;68.80;;;;;;9181756;19;20016;-70
2022/08/23 06:01:23;;;;;;;17.90;9.15;;;18.20;68.90;;;;;;9179482;19;20018;-71
2022/08/23 06:04:32;;;;;;;14.35;8.63;;;18.30;69.10;;;;;;9180378;19;20015;-68
2022/08/23 06:07:40;;;;;;;15.82;8.10;;;18.30;69.10;;;;;;9181008;19;20605;-70
2022/08/23 06:10:45;;;;;;;16.13;8.48;;;18.40;69.20;;;;;;9177965;19;20014;-71
2022/08/23 06:14:03;;;;;;;11.38;7.82;;;18.40;69.20;;;;;;9179695;19;20037;-71
2022/08/23 06:17:09;;;;;;;11.05;7.90;;;18.50;69.20;;;;;;9177020;19;20022;-69
2022/08/23 06:20:14;;;;;;;14.95;7.72;;;18.70;69.30;;;;;;9174163;19;20025;-70
2022/08/23 06:23:41;;;;;;;14.48;8.23;;;18.80;69.40;;;;;;9175087;19;20018;-72
2022/08/23 06:26:46;;;;;;;14.43;8.15;;;18.90;69.40;;;;;;9170292;19;20039;-70
2022/08/23 06:29:52;;;;;;;15.02;8.00;;;19.00;69.40;;;;;;9173738;19;20106;-70
2022/08/23 06:33:08;;;;;;;10.57;7.18;;;19.20;69.40;;;;;;9174896;19;20029;-71
2022/08/23 06:36:22;;;;;;;11.93;6.97;;;19.40;69.40;;;;;;9176559;19;20025;-71
2022/08/23 06:39:44;;;;;;;9.43;6.63;;;19.60;69.30;;;;;;9173227;19;20010;-70
2022/08/23 06:43:03;;;;;;;17.08;7.38;;;19.70;69.20;;;;;;9173960;19;20056;-71
2022/08/23 06:46:30;;;;;;;16.90;7.88;;;19.90;69.10;;;;;;9174224;19;20022;-70
2022/08/23 06:49:35;;;;;;;9.70;6.63;;;20.20;69.10;;;;;;9173834;19;20022;-68
2022/08/23 06:52:40;;;;;;;8.43;5.78;;;20.40;69.10;;;;;;9174341;19;20365;-68
2022/08/23 06:56:02;;;;;;;11.15;6.75;;;20.50;68.80;;;;;;9173372;19;20467;-71
2022/08/23 06:59:18;;;;;;;15.50;7.70;;;20.80;68.70;;;;;;9173539;19;20024;-71
2022/08/23 07:02:47;;;;;;;13.95;6.75;;;21.00;68.60;;;;;;9171792;19;20031;-71
2022/08/23 07:06:12;;;;;;;9.82;5.97;;;21.30;68.40;;;;;;9173886;19;20078;-71
2022/08/23 07:09:18;;;;;;;12.80;6.28;;;21.50;68.20;;;;;;9170864;19;20056;-69
2022/08/23 07:12:25;;;;;;;18.35;6.93;;;21.70;68.30;;;;;;9169740;19;20770;-71
2022/08/23 07:15:30;;;;;;;9.27;5.65;;;22.00;67.80;;;;;;9167283;19;20678;-70
2022/08/23 07:18:37;;;;;;;13.02;5.55;;;22.10;67.50;;;;;;9163289;19;20642;-70
2022/08/23 07:21:43;;;;;;;12.13;5.40;;;22.30;67.40;;;;;;9164958;19;20014;-70
2022/08/23 07:24:52;;;;;;;9.20;5.13;;;22.50;67.20;;;;;;9168652;19;20026;-70
2022/08/23 07:28:01;;;;;;;11.80;5.90;;;22.60;67.10;;;;;;9168430;19;20118;-70
2022/08/23 07:31:11;;;;;;;8.93;5.15;;;22.80;66.80;;;;;;9172185;19;20405;-71
2022/08/23 07:34:19;;;;;;;15.18;5.65;;;23.00;66.50;;;;;;9172308;19;20070;-69
2022/08/23 07:37:25;;;;;;;13.90;5.47;;;23.10;66.40;;;;;;9171296;19;20052;-71
2022/08/23 07:40:30;;;;;;;12.38;5.00;;;23.30;66.10;;;;;;9169337;19;20023;-71
2022/08/23 07:43:46;;;;;;;12.68;5.43;;;23.40;65.90;;;;;;9170848;19;20360;-71
2022/08/23 07:46:51;;;;;;;7.40;4.53;;;23.50;65.80;;;;;;9172745;19;20011;-71
2022/08/23 07:49:56;;;;;;;10.20;5.32;;;23.60;65.70;;;;;;9171724;19;20019;-70
2022/08/23 07:53:02;;;;;;;19.40;5.93;;;23.80;65.40;;;;;;9170901;19;20056;-71
2022/08/23 07:56:09;;;;;;;11.20;5.45;;;23.90;65.20;;;;;;9181419;19;20022;-72
2022/08/23 07:59:35;;;;;;;13.73;5.07;;;24.00;65.10;;;;;;9182274;19;20019;-70
2022/08/23 08:03:03;;;;;;;11.77;5.55;;;24.10;65.50;;;;;;9180200;19;20015;-67
2022/08/23 08:06:27;;;;;;;9.63;5.07;;;24.30;64.80;;;;;;9180068;19;20015;-70
2022/08/23 08:09:32;;;;;;;15.40;6.18;;;24.40;64.50;;;;;;9177691;19;20015;-70
2022/08/23 08:12:37;;;;;;;8.57;5.10;;;24.60;64.40;;;;;;9178865;19;20022;-70
2022/08/23 08:15:57;;;;;;;12.52;5.20;;;24.70;64.10;;;;;;9179184;19;20018;-69
2022/08/23 08:19:08;;;;;;;9.85;5.03;;;24.90;64.00;;;;;;9183933;19;20548;-70
2022/08/23 08:22:32;;;;;;;8.93;5.00;;;25.00;63.70;;;;;;9182134;19;20352;-68
2022/08/23 08:26:09;;;;;;;9.50;4.70;;;25.30;63.60;;;;;;9181337;19;20358;-72
2022/08/23 08:29:15;;;;;;;12.73;4.70;;;25.50;63.50;;;;;;9178794;19;20497;-69
2022/08/23 08:32:24;;;;;;;12.20;4.60;;;25.60;63.20;;;;;;9178788;19;20055;-71
2022/08/23 08:35:29;;;;;;;11.48;4.00;;;25.80;62.90;;;;;;9175930;19;20569;-69
2022/08/23 08:38:35;;;;;;;12.60;3.95;;;26.00;62.80;;;;;;9181118;19;20459;-69
2022/08/23 08:41:54;;;;;;;11.15;4.60;;;26.20;62.60;;;;;;9175201;19;20053;-69
2022/08/23 08:45:13;;;;;;;18.15;4.68;;;26.40;62.30;;;;;;9176092;19;20023;-70
2022/08/23 08:48:25;;;;;;;11.25;4.35;;;26.60;62.10;;;;;;9176311;19;20011;-69
2022/08/23 08:51:43;;;;;;;10.73;3.95;;;26.80;61.80;;;;;;9179553;19;20018;-70
2022/08/23 08:54:52;;;;;;;11.73;3.95;;;27.00;61.60;;;;;;9180266;19;20418;-69
2022/08/23 08:58:00;;;;;;;13.70;4.38;;;27.30;61.50;;;;;;9177745;19;20019;-68
2022/08/23 09:01:05;;;;;;;9.68;4.50;;;27.50;61.20;;;;;;9181886;19;20854;-68
2022/08/23 09:04:13;;;;;;;15.48;4.03;;;27.70;60.90;;;;;;9173335;19;20090;-74
2022/08/23 09:07:30;;;;;;;13.13;4.45;;;27.80;60.40;;;;;;9175967;19;20091;-70
2022/08/23 09:10:57;;;;;;;12.27;3.40;;;28.00;60.00;;;;;;9173579;19;20423;-71
2022/08/23 09:14:30;;;;;;;10.25;4.10;;;28.20;59.80;;;;;;9176934;19;20011;-71
2022/08/23 09:17:42;;;;;;;8.98;3.22;;;28.50;59.40;;;;;;9175292;19;20078;-69
2022/08/23 09:20:56;;;;;;;9.70;3.58;;;28.70;59.50;;;;;;9176540;19;20427;-70
2022/08/23 09:24:01;;;;;;;8.82;3.72;;;28.90;59.10;;;;;;9174908;19;20022;-70
2022/08/23 09:27:20;;;;;;;15.75;4.30;;;29.10;58.90;;;;;;9180494;19;20022;-69
2022/08/23 09:30:47;;;;;;;10.75;3.10;;;29.20;58.70;;;;;;9173812;19;20898;-68
2022/08/23 09:33:52;;;;;;;13.18;3.60;;;29.50;58.00;;;;;;9180557;19;20029;-71
2022/08/23 09:37:21;;;;;;;13.80;3.95;;;29.70;58.20;;;;;;9175971;19;20019;-68
2022/08/23 09:40:31;;;;;;;;;;;29.80;57.70;;;;;;9174536;19;20135;-68
2022/08/23 09:43:47;;;;;;;11.35;3.28;;;30.00;58.00;;;;;;9173883;19;20293;-70
2022/08/23 09:47:07;;;;;;;13.43;3.30;;;30.20;57.30;;;;;;9176387;19;20026;-72
2022/08/23 09:50:25;;;;;;;13.85;3.10;;;30.40;56.70;;;;;;9178722;19;20007;-71
2022/08/23 09:53:33;;;;;;;10.18;3.00;;;30.50;56.70;;;;;;9181985;19;20515;-68
2022/08/23 09:56:53;;;;;;;9.52;3.35;;;30.70;56.30;;;;;;9180229;19;20027;-71
2022/08/23 10:00:04;;;;;;;8.70;3.00;;;30.90;56.00;;;;;;9178376;19;20459;-69
2022/08/23 10:03:26;;;;;;;10.70;3.17;;;31.00;55.70;;;;;;9173608;19;20598;-71
2022/08/23 10:06:47;;;;;;;9.32;3.45;;;31.20;55.10;;;;;;9171233;19;20048;-70
2022/08/23 10:09:55;;;;;;;8.88;2.78;;;31.40;55.30;;;;;;9173239;19;20021;-68
2022/08/23 10:13:01;;;;;;;9.05;2.58;;;31.50;54.80;;;;;;9175042;19;20443;-70
2022/08/23 10:16:14;;;;;;;9.98;2.60;;;31.60;54.70;;;;;;9173508;19;20081;-71
2022/08/23 10:19:40;;;;;;;5.82;2.47;;;31.80;54.30;;;;;;9176982;19;20023;-69
2022/08/23 10:22:47;;;;;;;7.68;2.50;;;31.90;53.80;;;;;;9174053;19;20022;-69
2022/08/23 10:26:05;;;;;;;8.02;2.63;;;32.10;53.70;;;;;;9169210;19;20021;-70
2022/08/23 10:32:52;;;;;;;9.98;2.83;;;32.40;52.90;;;;;;9175055;19;20081;-70
2022/08/23 10:36:08;;;;;;;4.45;2.30;;;32.50;52.60;;;;;;9173783;19;20018;-72
2022/08/23 10:39:17;;;;;;;9.25;2.53;;;32.60;52.40;;;;;;9175838;19;20408;-71
2022/08/23 10:42:34;;;;;;;9.02;2.78;;;32.70;52.30;;;;;;9173172;19;20022;-70
2022/08/23 10:45:43;;;;;;;6.43;2.38;;;32.80;51.80;;;;;;9172940;19;20019;-68
2022/08/23 10:49:02;;;;;;;4.85;2.67;;;32.90;51.70;;;;;;9173637;19;20041;-69
2022/08/23 10:52:16;;;;;;;10.95;2.85;;;33.00;51.50;;;;;;9173012;19;20048;-69
2022/08/23 10:55:43;;;;;;;10.40;2.75;;;33.00;51.00;;;;;;9174488;19;20048;-69
2022/08/23 10:58:55;;;;;;;5.72;2.45;;;33.20;51.00;;;;;;9172101;19;20029;-68
2022/08/23 11:02:06;;;;;;;7.35;2.30;;;33.20;50.60;;;;;;9171318;19;20018;-67
2022/08/23 11:05:23;;;;;;;15.55;2.35;;;33.30;50.50;;;;;;9171168;19;20029;-69
2022/08/23 11:08:44;;;;;;;8.70;2.70;;;33.40;50.10;;;;;;9172891;19;20011;-70
2022/08/23 11:12:12;;;;;;;7.53;2.40;;;33.40;49.80;;;;;;9171534;19;20086;-69
2022/08/23 11:15:30;;;;;;;5.55;2.00;;;33.50;49.40;;;;;;9175305;19;20015;-69
2022/08/23 11:18:42;;;;;;;8.20;3.17;;;33.60;49.30;;;;;;9169756;19;20029;-70
2022/08/23 11:21:50;;;;;;;8.10;2.47;;;33.60;49.20;;;;;;9170094;19;20019;-70
2022/08/23 11:25:00;;;;;;;3.03;1.80;;;33.70;49.20;;;;;;9161201;19;20015;-71
2022/08/23 11:28:38;;;;;;;6.80;2.30;;;33.70;49.00;;;;;;9168053;19;20018;-70
2022/08/23 11:31:50;;;;;;;4.38;2.20;;;33.80;48.50;;;;;;9175219;19;20165;-72
2022/08/23 11:35:07;;;;;;;9.35;2.83;;;33.80;48.50;;;;;;9174768;19;20682;-71
2022/08/23 11:38:15;;;;;;;7.90;2.85;;;33.80;48.20;;;;;;9174610;19;20018;-72
2022/08/23 11:41:28;;;;;;;5.40;2.08;;;33.90;48.30;;;;;;9174059;19;20049;-70
2022/08/23 11:44:41;;;;;;;9.05;2.40;;;33.80;48.00;;;;;;9176167;19;20663;-70
2022/08/23 11:48:05;;;;;;;6.30;2.35;;;33.90;48.30;;;;;;9174218;19;20006;-72
2022/08/23 11:51:23;;;;;;;8.10;2.50;;;33.90;47.60;;;;;;9171021;19;20665;-70
2022/08/23 11:54:48;;;;;;;6.35;2.25;;;33.90;47.40;;;;;;9176201;19;20022;-70
2022/08/23 11:58:06;;;;;;;9.50;2.55;;;34.00;47.30;;;;;;9178555;19;20392;-71
2022/08/23 12:01:13;;;;;;;5.63;2.08;;;34.00;47.30;;;;;;9177045;19;20018;-71
2022/08/23 12:04:37;;;;;;;8.77;2.10;;;34.10;47.30;;;;;;9177605;19;20021;-69
2022/08/23 12:07:46;;;;;;;;;;;34.10;46.70;;;;;;9176559;19;20010;-70
2022/08/23 12:11:09;;;;;;;4.35;2.28;;;34.20;47.50;;;;;;9171373;19;19926;-67
2022/08/23 12:14:37;;;;;;;8.13;2.60;;;34.20;46.80;;;;;;9176264;19;20022;-70
2022/08/23 12:18:14;;;;;;;10.20;2.35;;;34.30;46.50;;;;;;9176462;19;20030;-69
2022/08/23 12:21:32;;;;;;;5.80;2.63;;;34.30;46.40;;;;;;9176511;19;20586;-68
2022/08/23 12:24:45;;;;;;;12.73;2.53;;;34.30;46.60;;;;;;9173049;19;20034;-67
2022/08/23 12:27:56;;;;;;;12.38;2.67;;;34.30;46.30;;;;;;9179696;19;20480;-68
2022/08/23 12:31:07;;;;;;;17.05;2.75;;;34.30;46.20;;;;;;9181289;19;20018;-67
2022/08/23 12:34:27;;;;;;;7.93;2.58;;;34.20;45.90;;;;;;9181696;19;20070;-67
2022/08/23 12:37:41;;;;;;;3.15;2.10;;;34.10;45.70;;;;;;9184725;19;20003;-67
2022/08/23 12:40:51;;;;;;;8.38;2.30;;;34.00;45.70;;;;;;9176569;19;20035;-67
2022/08/23 12:44:03;;;;;;;10.68;2.85;;;33.90;45.70;;;;;;9179955;19;20014;-66
2022/08/23 12:47:17;;;;;;;10.60;2.88;;;33.80;45.70;;;;;;9177467;19;20017;-67
2022/08/23 12:50:27;;;;;;;4.90;2.40;;;33.70;45.50;;;;;;9178537;19;20014;-66
2022/08/23 12:53:42;;;;;;;7.93;2.50;;;33.60;45.40;;;;;;9177139;19;20025;-67
2022/08/23 12:56:51;;;;;;;6.20;2.60;;;33.50;45.40;;;;;;9178928;19;20048;-67
2022/08/23 13:00:07;;;;;;;4.72;2.20;;;33.50;45.50;;;;;;9183167;19;20432;-67
2022/08/23 13:03:24;;;;;;;6.38;2.50;;;33.40;45.30;;;;;;9181819;19;20090;-66
2022/08/23 13:06:32;;;;;;;6.82;2.25;;;33.30;45.30;;;;;;9178172;19;20021;-69
2022/08/23 13:09:42;;;;;;;6.78;2.85;;;33.20;45.20;;;;;;9182037;19;20610;-67
2022/08/23 13:12:57;;;;;;;4.65;2.22;;;33.10;45.00;;;;;;9178351;19;20025;-67
2022/08/23 13:16:05;;;;;;;4.07;2.00;;;33.10;45.20;;;;;;9168906;19;20384;-70
2022/08/23 13:19:21;;;;;;;4.95;2.33;;;33.00;45.00;;;;;;9169705;19;20533;-68
2022/08/23 13:22:31;;;;;;;6.43;2.50;;;33.00;44.80;;;;;;9165043;19;20468;-68
2022/08/23 13:25:40;;;;;;;4.13;2.03;;;32.90;45.00;;;;;;9162728;19;20022;-70
2022/08/23 13:29:06;;;;;;;8.90;2.33;;;32.90;44.90;;;;;;9169610;19;20014;-70
2022/08/23 13:32:27;;;;;;;10.52;2.80;;;32.80;44.70;;;;;;9168356;19;20019;-69
2022/08/23 13:35:36;;;;;;;6.35;2.55;;;32.80;44.80;;;;;;9169598;19;20042;-67
2022/08/23 13:38:41;;;;;;;6.95;2.83;;;32.70;44.90;;;;;;9167325;19;20018;-67
2022/08/23 13:41:49;;;;;;;5.07;2.15;;;32.70;45.00;;;;;;9166538;19;20026;-69
2022/08/23 13:44:55;;;;;;;5.90;2.60;;;32.70;44.90;;;;;;9171586;19;20018;-68
2022/08/23 13:48:08;;;;;;;6.20;2.20;;;32.50;44.80;;;;;;9161766;19;20022;-69
2022/08/23 13:51:28;;;;;;;8.40;2.45;;;32.50;44.80;;;;;;9165751;19;20022;-64
2022/08/23 13:54:34;;;;;;;7.05;2.60;;;32.40;44.70;;;;;;9172661;19;20115;-65
2022/08/23 13:57:44;;;;;;;5.55;2.75;;;32.40;45.00;;;;;;9172297;19;20022;-67
2022/08/23 14:00:49;;;;;;;5.07;2.10;;;32.30;44.80;;;;;;9166720;19;20019;-66
2022/08/23 14:03:59;;;;;;;7.78;2.40;;;32.20;44.80;;;;;;9168586;19;20078;-66
2022/08/23 14:07:05;;;;;;;5.10;2.38;;;32.20;44.90;;;;;;9167455;19;20023;-69
2022/08/23 14:10:10;;;;;;;5.45;2.80;;;32.10;44.90;;;;;;9165027;19;20019;-70
2022/08/23 14:13:21;;;;;;;6.00;2.65;;;32.00;44.90;;;;;;9170476;19;20032;-69
2022/08/23 14:16:30;;;;;;;6.47;2.40;;;32.00;44.80;;;;;;9170456;19;20018;-69
2022/08/23 14:19:38;;;;;;;6.75;2.17;;;31.90;44.80;;;;;;9168877;19;20019;-68
2022/08/23 14:23:02;;;;;;;8.85;2.55;;;31.90;44.90;;;;;;9167503;19;20018;-69
2022/08/23 14:26:18;;;;;;;7.33;2.93;;;31.80;45.00;;;;;;9166149;19;20022;-70
2022/08/23 14:29:28;;;;;;;5.65;2.55;;;31.80;44.90;;;;;;9170086;19;20014;-70
2022/08/23 14:32:34;;;;;;;7.65;2.45;;;31.70;44.70;;;;;;9168783;19;20037;-70
2022/08/23 14:35:39;;;;;;;4.60;2.30;;;31.70;44.80;;;;;;9167885;19;20082;-70
2022/08/23 14:38:45;;;;;;;7.32;2.78;;;31.60;44.80;;;;;;9168970;19;20014;-69
2022/08/23 14:41:54;;;;;;;9.55;2.50;;;31.60;44.80;;;;;;9160842;19;20020;-70
2022/08/23 14:45:01;;;;;;;7.45;2.45;;;31.50;44.90;;;;;;9159952;19;20475;-70
2022/08/23 14:48:07;;;;;;;6.25;2.58;;;31.50;45.10;;;;;;9158009;19;20376;-71
2022/08/23 14:51:24;;;;;;;5.50;2.08;;;31.50;45.10;;;;;;9159793;19;20023;-69
2022/08/23 14:54:29;;;;;;;6.47;2.45;;;31.40;45.10;;;;;;9165646;19;20856;-70
2022/08/23 14:57:34;;;;;;;6.75;2.38;;;31.30;45.20;;;;;;9160482;19;21096;-70
2022/08/23 15:00:42;;;;;;;6.57;2.28;;;31.30;45.20;;;;;;9160368;19;20086;-69
2022/08/23 15:03:47;;;;;;;5.90;2.05;;;31.30;45.40;;;;;;9171016;19;20023;-69
2022/08/23 15:06:54;;;;;;;6.65;2.30;;;31.20;45.30;;;;;;9175147;19;20472;-68
2022/08/23 15:10:19;;;;;;;7.57;2.50;;;31.20;45.30;;;;;;9172268;19;20650;-66
2022/08/23 15:13:45;;;;;;;3.55;2.17;;;31.20;45.40;;;;;;9171066;19;20379;-68
2022/08/23 15:17:02;;;;;;;9.07;2.25;;;31.20;45.40;;;;;;9169311;19;20018;-68
2022/08/23 15:20:08;;;;;;;8.07;2.60;;;31.10;45.40;;;;;;9171123;19;20535;-68
2022/08/23 15:23:14;;;;;;;7.47;2.70;;;31.10;45.50;;;;;;9173568;19;20019;-69
2022/08/23 15:26:24;;;;;;;6.78;2.20;;;31.00;45.40;;;;;;9170642;19;20028;-69
2022/08/23 15:29:29;;;;;;;10.63;2.75;;;31.00;45.40;;;;;;9176460;19;20022;-67
2022/08/23 15:32:37;;;;;;;11.05;3.10;;;31.00;45.40;;;;;;9173333;19;20023;-67
2022/08/23 15:35:50;;;;;;;4.50;2.33;;;30.90;45.40;;;;;;9176505;19;20023;-70
2022/08/23 15:38:56;;;;;;;4.50;2.22;;;30.80;45.50;;;;;;9176286;19;20019;-66
2022/08/23 15:42:01;;;;;;;8.07;2.80;;;30.80;45.60;;;;;;9170435;19;20516;-68
2022/08/23 15:45:08;;;;;;;8.27;2.20;;;30.80;45.50;;;;;;9169822;19;20015;-65
2022/08/23 15:48:20;;;;;;;5.38;2.17;;;30.80;45.40;;;;;;9177441;19;20021;-66
2022/08/23 15:51:26;;;;;;;5.15;2.38;;;30.80;45.30;;;;;;9166106;19;21251;-66
2022/08/23 15:54:31;;;;;;;5.25;2.38;;;30.80;45.40;;;;;;9173562;19;20014;-68
2022/08/23 15:57:42;;;;;;;10.43;2.50;;;30.80;45.40;;;;;;9173617;19;20030;-63
2022/08/23 16:00:48;;;;;;;6.88;2.33;;;30.80;45.30;;;;;;9171548;19;20037;-66
2022/08/23 16:03:55;;;;;;;5.75;2.42;;;30.90;45.40;;;;;;9172471;19;20790;-66
2022/08/23 16:07:01;;;;;;;7.32;2.17;;;30.90;45.30;;;;;;9172294;19;20031;-66
2022/08/23 16:10:08;;;;;;;27.98;2.83;;;31.00;45.30;;;;;;9172218;19;20021;-66
2022/08/23 16:13:12;;;;;;;10.98;2.08;;;31.00;45.20;;;;;;9168092;19;20019;-66
2022/08/23 16:16:20;;;;;;;11.63;2.35;;;31.00;45.20;;;;;;9169876;19;20420;-66
2022/08/23 16:19:29;;;;;;;5.75;2.42;;;31.10;45.20;;;;;;9170380;19;20052;-67
2022/08/23 16:22:34;;;;;;;5.85;2.00;;;31.10;45.10;;;;;;9170570;19;20025;-68
2022/08/23 16:25:40;;;;;;;10.80;2.40;;;31.10;45.10;;;;;;9167140;19;20022;-66
2022/08/23 16:28:46;;;;;;;8.30;2.67;;;31.20;45.20;;;;;;9170291;19;20021;-66
2022/08/23 16:31:51;;;;;;;8.65;2.10;;;31.10;45.10;;;;;;9172983;19;20502;-67
2022/08/23 16:34:58;;;;;;;10.25;2.13;;;31.10;45.10;;;;;;9175144;19;20018;-66
2022/08/23 16:38:03;;;;;;;7.10;2.20;;;31.20;45.10;;;;;;9164194;19;20026;-68
2022/08/23 16:41:09;;;;;;;6.60;2.05;;;31.20;45.20;;;;;;9162902;19;20759;-71
2022/08/23 16:44:14;;;;;;;7.72;2.55;;;31.20;45.10;;;;;;9163369;19;20374;-72